KUNU/UNU METAR and TAF weather

Enter ICAO airport designator
Station Type Date Time Source
KUNU METAR 2021/05/14 07:35 UTC NOAA

KUNU 140735Z AUTO 00000KT 10SM CLR 08/00 A3030 RMK AO2 T00801002


Station Type Date Time Source
KUNU Decoded METAR 2021/05/14 07:35 UTC NOAA

Juneau, Dodge County Airport, WI, United States (KUNU) 43-25-36N 088-42-12W
May 14, 2021 - 03:35 AM EDT / 2021.05.14 0735 UTC
Wind: Calm:0
Visibility: 10 mile(s):0
Sky conditions: clear
Temperature: 46.4 F (8.0 C)
Dew Point: 31.6 F (-0.2 C)
Relative Humidity: 56%
Pressure (altimeter): 30.3 in. Hg (1026 hPa)
ob: KUNU 140735Z AUTO 00000KT 10SM CLR 08/00 A3030 RMK AO2 T00801002
cycle: 7

Station Type Date Time Source
KUNU TAF UTC NOAA

Error!

Example: see airport list